sensor_id;sensor_type;location;lat;lon;timestamp;pressure;altitude;pressure_sealevel;temperature;humidity
22580;BME280;11456;47.030;15.396;2023-12-14T00:01:45;96337.72;;;4.70;100.00
22580;BME280;11456;47.030;15.396;2023-12-14T00:04:13;96341.09;;;4.63;100.00
22580;BME280;11456;47.030;15.396;2023-12-14T00:06:39;96339.16;;;4.65;100.00
22580;BME280;11456;47.030;15.396;2023-12-14T00:09:06;96340.75;;;4.75;100.00
22580;BME280;11456;47.030;15.396;2023-12-14T00:11:40;96350.06;;;4.71;100.00
22580;BME280;11456;47.030;15.396;2023-12-14T00:14:07;96353.13;;;4.76;100.00
22580;BME280;11456;47.030;15.396;2023-12-14T00:16:34;96354.97;;;4.94;100.00
22580;BME280;11456;47.030;15.396;2023-12-14T00:19:01;96357.66;;;4.66;100.00
22580;BME280;11456;47.030;15.396;2023-12-14T00:21:27;96365.03;;;4.45;100.00
22580;BME280;11456;47.030;15.396;2023-12-14T00:23:54;96370.63;;;4.52;100.00
22580;BME280;11456;47.030;15.396;2023-12-14T00:26:21;96374.53;;;4.57;100.00
22580;BME280;11456;47.030;15.396;2023-12-14T00:28:47;96375.09;;;4.61;100.00
22580;BME280;11456;47.030;15.396;2023-12-14T00:31:14;96375.66;;;4.55;100.00
22580;BME280;11456;47.030;15.396;2023-12-14T00:33:41;96379.09;;;4.47;100.00
22580;BME280;11456;47.030;15.396;2023-12-14T00:36:08;96384.41;;;4.47;100.00
22580;BME280;11456;47.030;15.396;2023-12-14T00:38:34;96377.25;;;4.48;100.00
22580;BME280;11456;47.030;15.396;2023-12-14T00:41:01;96375.31;;;4.67;100.00
22580;BME280;11456;47.030;15.396;2023-12-14T00:43:28;96377.22;;;4.84;100.00
22580;BME280;11456;47.030;15.396;2023-12-14T00:45:54;96380.00;;;4.93;100.00
22580;BME280;11456;47.030;15.396;2023-12-14T00:48:21;96380.09;;;4.73;100.00
22580;BME280;11456;47.030;15.396;2023-12-14T00:50:48;96391.56;;;4.74;100.00
22580;BME280;11456;47.030;15.396;2023-12-14T00:53:14;96386.00;;;4.67;100.00
22580;BME280;11456;47.030;15.396;2023-12-14T00:55:41;96384.25;;;4.86;100.00
22580;BME280;11456;47.030;15.396;2023-12-14T00:58:08;96389.06;;;4.72;100.00
22580;BME280;11456;47.030;15.396;2023-12-14T01:00:35;96384.41;;;4.74;100.00
22580;BME280;11456;47.030;15.396;2023-12-14T01:03:02;96389.22;;;4.98;100.00
22580;BME280;11456;47.030;15.396;2023-12-14T01:05:29;96396.03;;;4.83;100.00
22580;BME280;11456;47.030;15.396;2023-12-14T01:07:56;96390.59;;;5.02;100.00
22580;BME280;11456;47.030;15.396;2023-12-14T01:10:22;96396.00;;;4.93;100.00
22580;BME280;11456;47.030;15.396;2023-12-14T01:12:49;96394.22;;;5.11;100.00
22580;BME280;11456;47.030;15.396;2023-12-14T01:15:16;96390.66;;;4.93;100.00
22580;BME280;11456;47.030;15.396;2023-12-14T01:17:43;96384.53;;;4.82;100.00
22580;BME280;11456;47.030;15.396;2023-12-14T01:20:10;96398.59;;;4.75;100.00
22580;BME280;11456;47.030;15.396;2023-12-14T01:22:37;96394.66;;;4.79;100.00
22580;BME280;11456;47.030;15.396;2023-12-14T01:25:05;96406.19;;;4.79;100.00
22580;BME280;11456;47.030;15.396;2023-12-14T01:27:31;96404.19;;;4.81;100.00
22580;BME280;11456;47.030;15.396;2023-12-14T01:29:58;96416.53;;;4.82;100.00
22580;BME280;11456;47.030;15.396;2023-12-14T01:32:25;96411.09;;;5.02;100.00
22580;BME280;11456;47.030;15.396;2023-12-14T01:34:51;96411.41;;;4.99;100.00
22580;BME280;11456;47.030;15.396;2023-12-14T01:37:18;96415.16;;;4.78;100.00
22580;BME280;11456;47.030;15.396;2023-12-14T01:39:45;96419.97;;;4.65;100.00
22580;BME280;11456;47.030;15.396;2023-12-14T01:42:11;96418.81;;;4.68;100.00
22580;BME280;11456;47.030;15.396;2023-12-14T01:44:38;96424.41;;;4.74;100.00
22580;BME280;11456;47.030;15.396;2023-12-14T01:47:05;96421.09;;;4.72;100.00
22580;BME280;11456;47.030;15.396;2023-12-14T01:49:31;96420.72;;;4.48;100.00
22580;BME280;11456;47.030;15.396;2023-12-14T01:51:58;96424.03;;;4.69;100.00
22580;BME280;11456;47.030;15.396;2023-12-14T01:54:25;96421.69;;;4.57;100.00
22580;BME280;11456;47.030;15.396;2023-12-14T01:56:51;96431.16;;;4.78;100.00
22580;BME280;11456;47.030;15.396;2023-12-14T01:59:18;96431.25;;;4.87;100.00
22580;BME280;11456;47.030;15.396;2023-12-14T02:01:46;96435.81;;;5.04;100.00
22580;BME280;11456;47.030;15.396;2023-12-14T02:04:20;96436.56;;;4.87;100.00
22580;BME280;11456;47.030;15.396;2023-12-14T02:06:47;96437.25;;;4.98;100.00
22580;BME280;11456;47.030;15.396;2023-12-14T02:09:14;96433.59;;;4.99;100.00
22580;BME280;11456;47.030;15.396;2023-12-14T02:11:40;96434.41;;;5.00;100.00
22580;BME280;11456;47.030;15.396;2023-12-14T02:14:11;96439.47;;;5.03;100.00
22580;BME280;11456;47.030;15.396;2023-12-14T02:16:38;96444.44;;;4.88;100.00
22580;BME280;11456;47.030;15.396;2023-12-14T02:19:06;96451.81;;;5.04;100.00
22580;BME280;11456;47.030;15.396;2023-12-14T02:21:32;96449.03;;;4.96;100.00
22580;BME280;11456;47.030;15.396;2023-12-14T02:23:59;96445.75;;;5.11;100.00
22580;BME280;11456;47.030;15.396;2023-12-14T02:26:26;96457.66;;;5.17;100.00
22580;BME280;11456;47.030;15.396;2023-12-14T02:28:52;96459.13;;;5.29;100.00
22580;BME280;11456;47.030;15.396;2023-12-14T02:31:19;96482.16;;;5.03;100.00
22580;BME280;11456;47.030;15.396;2023-12-14T02:33:46;96475.44;;;4.99;100.00
22580;BME280;11456;47.030;15.396;2023-12-14T02:36:13;96472.06;;;4.97;100.00
22580;BME280;11456;47.030;15.396;2023-12-14T02:38:40;96475.19;;;4.92;100.00
22580;BME280;11456;47.030;15.396;2023-12-14T02:41:07;96472.84;;;4.79;100.00
22580;BME280;11456;47.030;15.396;2023-12-14T02:43:34;96474.84;;;5.05;100.00
22580;BME280;11456;47.030;15.396;2023-12-14T02:46:01;96466.75;;;4.97;100.00
22580;BME280;11456;47.030;15.396;2023-12-14T02:48:29;96474.69;;;4.69;100.00
22580;BME280;11456;47.030;15.396;2023-12-14T02:50:56;96478.59;;;4.75;100.00
22580;BME280;11456;47.030;15.396;2023-12-14T02:53:23;96477.41;;;4.97;100.00
22580;BME280;11456;47.030;15.396;2023-12-14T02:55:50;96486.97;;;4.99;100.00
22580;BME280;11456;47.030;15.396;2023-12-14T02:58:18;96483.88;;;4.94;100.00
22580;BME280;11456;47.030;15.396;2023-12-14T03:00:45;96480.25;;;5.50;100.00
22580;BME280;11456;47.030;15.396;2023-12-14T03:03:11;96484.69;;;5.77;100.00
22580;BME280;11456;47.030;15.396;2023-12-14T03:05:38;96490.25;;;5.38;100.00
22580;BME280;11456;47.030;15.396;2023-12-14T03:08:05;96493.44;;;5.24;100.00
22580;BME280;11456;47.030;15.396;2023-12-14T03:10:32;96496.72;;;5.08;100.00
22580;BME280;11456;47.030;15.396;2023-12-14T03:12:58;96487.63;;;5.01;100.00
22580;BME280;11456;47.030;15.396;2023-12-14T03:15:25;96494.44;;;5.23;100.00
22580;BME280;11456;47.030;15.396;2023-12-14T03:17:52;96493.69;;;5.03;100.00
22580;BME280;11456;47.030;15.396;2023-12-14T03:20:18;96499.41;;;4.71;100.00
22580;BME280;11456;47.030;15.396;2023-12-14T03:22:45;96503.50;;;4.56;100.00
22580;BME280;11456;47.030;15.396;2023-12-14T03:25:12;96500.28;;;4.53;100.00
22580;BME280;11456;47.030;15.396;2023-12-14T03:27:39;96497.16;;;4.67;100.00
22580;BME280;11456;47.030;15.396;2023-12-14T03:30:06;96506.16;;;4.56;100.00
22580;BME280;11456;47.030;15.396;2023-12-14T03:32:36;96511.03;;;4.70;100.00
22580;BME280;11456;47.030;15.396;2023-12-14T03:35:04;96510.06;;;4.62;100.00
22580;BME280;11456;47.030;15.396;2023-12-14T03:37:31;96506.13;;;4.75;100.00
22580;BME280;11456;47.030;15.396;2023-12-14T03:39:58;96511.97;;;4.89;100.00
22580;BME280;11456;47.030;15.396;2023-12-14T03:42:24;96518.72;;;4.93;100.00
22580;BME280;11456;47.030;15.396;2023-12-14T03:44:51;96526.19;;;5.16;100.00
22580;BME280;11456;47.030;15.396;2023-12-14T03:47:18;96518.34;;;5.15;100.00
22580;BME280;11456;47.030;15.396;2023-12-14T03:49:44;96525.44;;;4.97;100.00
22580;BME280;11456;47.030;15.396;2023-12-14T03:52:11;96520.81;;;4.99;100.00
22580;BME280;11456;47.030;15.396;2023-12-14T03:54:38;96525.16;;;4.90;100.00
22580;BME280;11456;47.030;15.396;2023-12-14T03:57:04;96523.66;;;4.78;100.00
22580;BME280;11456;47.030;15.396;2023-12-14T03:59:31;96530.38;;;4.92;100.00
22580;BME280;11456;47.030;15.396;2023-12-14T04:01:59;96535.84;;;4.80;100.00
22580;BME280;11456;47.030;15.396;2023-12-14T04:04:26;96535.56;;;4.83;100.00
22580;BME280;11456;47.030;15.396;2023-12-14T04:06:52;96540.06;;;4.93;100.00
22580;BME280;11456;47.030;15.396;2023-12-14T04:09:19;96542.28;;;4.88;100.00
22580;BME280;11456;47.030;15.396;2023-12-14T04:11:46;96540.50;;;4.78;100.00
22580;BME280;11456;47.030;15.396;2023-12-14T04:14:12;96543.75;;;4.72;100.00
22580;BME280;11456;47.030;15.396;2023-12-14T04:16:39;96552.44;;;4.74;100.00
22580;BME280;11456;47.030;15.396;2023-12-14T04:19:06;96556.50;;;4.78;100.00
22580;BME280;11456;47.030;15.396;2023-12-14T04:21:36;96557.50;;;4.77;100.00
22580;BME280;11456;47.030;15.396;2023-12-14T04:24:03;96548.91;;;4.83;100.00
22580;BME280;11456;47.030;15.396;2023-12-14T04:26:30;96553.53;;;4.81;100.00
22580;BME280;11456;47.030;15.396;2023-12-14T04:28:57;96561.13;;;4.76;100.00
22580;BME280;11456;47.030;15.396;2023-12-14T04:31:24;96560.91;;;4.60;100.00
22580;BME280;11456;47.030;15.396;2023-12-14T04:33:51;96565.94;;;4.63;100.00
22580;BME280;11456;47.030;15.396;2023-12-14T04:36:18;96572.41;;;4.51;100.00
22580;BME280;11456;47.030;15.396;2023-12-14T04:38:44;96576.16;;;4.68;100.00
22580;BME280;11456;47.030;15.396;2023-12-14T04:41:13;96567.88;;;4.61;100.00
22580;BME280;11456;47.030;15.396;2023-12-14T04:43:40;96577.09;;;4.96;100.00
22580;BME280;11456;47.030;15.396;2023-12-14T04:46:07;96578.22;;;5.03;100.00
22580;BME280;11456;47.030;15.396;2023-12-14T04:48:34;96584.13;;;4.97;100.00
22580;BME280;11456;47.030;15.396;2023-12-14T04:51:00;96593.56;;;4.72;100.00
22580;BME280;11456;47.030;15.396;2023-12-14T04:53:27;96592.59;;;4.63;100.00
22580;BME280;11456;47.030;15.396;2023-12-14T04:55:54;96592.16;;;4.68;100.00
22580;BME280;11456;47.030;15.396;2023-12-14T04:58:21;96590.91;;;4.62;100.00
22580;BME280;11456;47.030;15.396;2023-12-14T05:00:47;96595.53;;;4.79;100.00
22580;BME280;11456;47.030;15.396;2023-12-14T05:03:14;96602.69;;;4.69;100.00
22580;BME280;11456;47.030;15.396;2023-12-14T05:05:41;96606.06;;;4.71;100.00
22580;BME280;11456;47.030;15.396;2023-12-14T05:08:08;96608.03;;;4.69;100.00
22580;BME280;11456;47.030;15.396;2023-12-14T05:10:35;96611.41;;;4.71;100.00
22580;BME280;11456;47.030;15.396;2023-12-14T05:13:03;96612.53;;;4.78;100.00
22580;BME280;11456;47.030;15.396;2023-12-14T05:15:29;96616.56;;;4.82;100.00
22580;BME280;11456;47.030;15.396;2023-12-14T05:17:57;96617.16;;;4.76;100.00
22580;BME280;11456;47.030;15.396;2023-12-14T05:20:24;96617.44;;;4.73;100.00
22580;BME280;11456;47.030;15.396;2023-12-14T05:22:51;96626.53;;;4.80;100.00
22580;BME280;11456;47.030;15.396;2023-12-14T05:25:18;96629.09;;;5.38;100.00
22580;BME280;11456;47.030;15.396;2023-12-14T05:27:45;96636.28;;;5.28;100.00
22580;BME280;11456;47.030;15.396;2023-12-14T05:30:11;96642.78;;;5.16;100.00
22580;BME280;11456;47.030;15.396;2023-12-14T05:32:38;96643.06;;;5.22;100.00
22580;BME280;11456;47.030;15.396;2023-12-14T05:35:06;96641.66;;;5.18;100.00
22580;BME280;11456;47.030;15.396;2023-12-14T05:37:33;96658.50;;;5.19;100.00
22580;BME280;11456;47.030;15.396;2023-12-14T05:39:59;96650.09;;;5.14;100.00
22580;BME280;11456;47.030;15.396;2023-12-14T05:42:26;96655.28;;;5.06;100.00
22580;BME280;11456;47.030;15.396;2023-12-14T05:44:53;96659.97;;;4.84;100.00
22580;BME280;11456;47.030;15.396;2023-12-14T05:47:20;96663.03;;;4.99;100.00
22580;BME280;11456;47.030;15.396;2023-12-14T05:49:46;96665.56;;;4.91;100.00
22580;BME280;11456;47.030;15.396;2023-12-14T05:52:13;96670.34;;;4.88;100.00
22580;BME280;11456;47.030;15.396;2023-12-14T05:54:40;96671.63;;;4.83;100.00
22580;BME280;11456;47.030;15.396;2023-12-14T05:57:07;96673.72;;;4.80;100.00
22580;BME280;11456;47.030;15.396;2023-12-14T05:59:34;96673.16;;;4.96;100.00
22580;BME280;11456;47.030;15.396;2023-12-14T06:02:01;96670.63;;;4.84;100.00
22580;BME280;11456;47.030;15.396;2023-12-14T06:04:28;96682.44;;;4.92;100.00
22580;BME280;11456;47.030;15.396;2023-12-14T06:06:54;96676.78;;;4.75;100.00
22580;BME280;11456;47.030;15.396;2023-12-14T06:09:21;96674.28;;;4.83;100.00
22580;BME280;11456;47.030;15.396;2023-12-14T06:11:52;96692.25;;;4.81;100.00
22580;BME280;11456;47.030;15.396;2023-12-14T06:14:18;96682.72;;;4.79;100.00
22580;BME280;11456;47.030;15.396;2023-12-14T06:16:45;96689.97;;;4.67;100.00
22580;BME280;11456;47.030;15.396;2023-12-14T06:19:12;96704.31;;;4.66;100.00
22580;BME280;11456;47.030;15.396;2023-12-14T06:21:40;96699.81;;;4.76;100.00
22580;BME280;11456;47.030;15.396;2023-12-14T06:24:07;96706.69;;;4.89;100.00
22580;BME280;11456;47.030;15.396;2023-12-14T06:26:34;96708.69;;;4.96;100.00
22580;BME280;11456;47.030;15.396;2023-12-14T06:29:00;96704.34;;;4.86;100.00
22580;BME280;11456;47.030;15.396;2023-12-14T06:31:27;96711.63;;;4.83;100.00
22580;BME280;11456;47.030;15.396;2023-12-14T06:33:54;96711.88;;;4.80;100.00
22580;BME280;11456;47.030;15.396;2023-12-14T06:36:26;96718.06;;;4.71;100.00
22580;BME280;11456;47.030;15.396;2023-12-14T06:39:00;96721.84;;;4.59;100.00
22580;BME280;11456;47.030;15.396;2023-12-14T06:41:27;96722.28;;;4.64;100.00
22580;BME280;11456;47.030;15.396;2023-12-14T06:43:55;96724.13;;;4.73;100.00
22580;BME280;11456;47.030;15.396;2023-12-14T06:46:21;96734.09;;;4.91;100.00
22580;BME280;11456;47.030;15.396;2023-12-14T06:48:48;96727.06;;;4.70;100.00
22580;BME280;11456;47.030;15.396;2023-12-14T06:51:15;96732.56;;;4.98;100.00
22580;BME280;11456;47.030;15.396;2023-12-14T06:53:43;96744.75;;;4.91;100.00
22580;BME280;11456;47.030;15.396;2023-12-14T06:56:10;96747.22;;;5.59;100.00
22580;BME280;11456;47.030;15.396;2023-12-14T06:58:42;96740.25;;;5.20;100.00
22580;BME280;11456;47.030;15.396;2023-12-14T07:01:13;96751.22;;;5.07;100.00
22580;BME280;11456;47.030;15.396;2023-12-14T07:03:44;96757.13;;;5.01;100.00
22580;BME280;11456;47.030;15.396;2023-12-14T07:06:12;96757.81;;;4.94;100.00
22580;BME280;11456;47.030;15.396;2023-12-14T07:08:40;96769.75;;;4.90;100.00
22580;BME280;11456;47.030;15.396;2023-12-14T07:11:08;96770.72;;;4.89;100.00
22580;BME280;11456;47.030;15.396;2023-12-14T07:13:35;96770.59;;;5.00;100.00
22580;BME280;11456;47.030;15.396;2023-12-14T07:16:07;96768.66;;;4.92;100.00
22580;BME280;11456;47.030;15.396;2023-12-14T07:18:39;96778.19;;;4.95;100.00
22580;BME280;11456;47.030;15.396;2023-12-14T07:21:06;96788.94;;;4.74;100.00
22580;BME280;11456;47.030;15.396;2023-12-14T07:23:34;96783.75;;;4.63;100.00
22580;BME280;11456;47.030;15.396;2023-12-14T07:26:02;96788.50;;;4.59;100.00
22580;BME280;11456;47.030;15.396;2023-12-14T07:28:32;96791.09;;;4.80;100.00
22580;BME280;11456;47.030;15.396;2023-12-14T07:30:59;96795.53;;;4.60;100.00
22580;BME280;11456;47.030;15.396;2023-12-14T07:33:25;96793.59;;;4.81;100.00
22580;BME280;11456;47.030;15.396;2023-12-14T07:35:52;96800.66;;;5.02;100.00
22580;BME280;11456;47.030;15.396;2023-12-14T07:38:19;96798.44;;;5.16;100.00
22580;BME280;11456;47.030;15.396;2023-12-14T07:40:46;96799.66;;;5.32;100.00
22580;BME280;11456;47.030;15.396;2023-12-14T07:43:13;96805.75;;;5.43;100.00
22580;BME280;11456;47.030;15.396;2023-12-14T07:45:40;96811.88;;;5.73;100.00
22580;BME280;11456;47.030;15.396;2023-12-14T07:48:06;96805.28;;;6.33;100.00
22580;BME280;11456;47.030;15.396;2023-12-14T07:50:33;96809.91;;;5.75;100.00
22580;BME280;11456;47.030;15.396;2023-12-14T07:53:00;96808.81;;;5.39;100.00
22580;BME280;11456;47.030;15.396;2023-12-14T07:55:27;96814.16;;;5.29;100.00
22580;BME280;11456;47.030;15.396;2023-12-14T07:57:54;96819.75;;;5.26;100.00
22580;BME280;11456;47.030;15.396;2023-12-14T08:00:21;96807.00;;;5.30;100.00
22580;BME280;11456;47.030;15.396;2023-12-14T08:02:47;96816.97;;;5.28;100.00
22580;BME280;11456;47.030;15.396;2023-12-14T08:05:14;96821.47;;;5.27;100.00
22580;BME280;11456;47.030;15.396;2023-12-14T08:07:41;96822.03;;;5.50;100.00
22580;BME280;11456;47.030;15.396;2023-12-14T08:10:08;96825.13;;;5.55;100.00
22580;BME280;11456;47.030;15.396;2023-12-14T08:12:35;96836.34;;;5.39;100.00
22580;BME280;11456;47.030;15.396;2023-12-14T08:15:02;96834.38;;;5.99;100.00
22580;BME280;11456;47.030;15.396;2023-12-14T08:17:29;96839.97;;;5.77;100.00
22580;BME280;11456;47.030;15.396;2023-12-14T08:19:56;96843.38;;;5.59;100.00
22580;BME280;11456;47.030;15.396;2023-12-14T08:22:22;96846.19;;;5.58;100.00
22580;BME280;11456;47.030;15.396;2023-12-14T08:24:49;96847.00;;;5.78;100.00
22580;BME280;11456;47.030;15.396;2023-12-14T08:27:16;96850.53;;;5.97;100.00
22580;BME280;11456;47.030;15.396;2023-12-14T08:29:43;96847.28;;;6.13;100.00
22580;BME280;11456;47.030;15.396;2023-12-14T08:32:11;96850.88;;;6.31;100.00
22580;BME280;11456;47.030;15.396;2023-12-14T08:34:40;96862.25;;;6.43;100.00
22580;BME280;11456;47.030;15.396;2023-12-14T08:37:07;96856.34;;;7.04;100.00
22580;BME280;11456;47.030;15.396;2023-12-14T08:39:34;96859.13;;;6.84;100.00
22580;BME280;11456;47.030;15.396;2023-12-14T08:42:00;96865.28;;;6.85;100.00
22580;BME280;11456;47.030;15.396;2023-12-14T08:44:27;96869.38;;;7.52;100.00
22580;BME280;11456;47.030;15.396;2023-12-14T08:46:54;96869.03;;;7.19;100.00
22580;BME280;11456;47.030;15.396;2023-12-14T08:49:21;96871.22;;;7.34;100.00
22580;BME280;11456;47.030;15.396;2023-12-14T08:51:49;96874.22;;;7.48;100.00
22580;BME280;11456;47.030;15.396;2023-12-14T08:54:16;96879.97;;;7.71;100.00
22580;BME280;11456;47.030;15.396;2023-12-14T08:56:43;96884.56;;;7.61;100.00
22580;BME280;11456;47.030;15.396;2023-12-14T08:59:10;96886.00;;;7.73;100.00
22580;BME280;11456;47.030;15.396;2023-12-14T09:01:37;96888.97;;;7.70;100.00
22580;BME280;11456;47.030;15.396;2023-12-14T09:04:04;96896.25;;;7.78;100.00
22580;BME280;11456;47.030;15.396;2023-12-14T09:06:30;96896.78;;;7.81;100.00
22580;BME280;11456;47.030;15.396;2023-12-14T09:08:57;96890.63;;;8.06;100.00
22580;BME280;11456;47.030;15.396;2023-12-14T09:11:24;96890.00;;;7.87;100.00
22580;BME280;11456;47.030;15.396;2023-12-14T09:13:50;96905.19;;;8.22;100.00
22580;BME280;11456;47.030;15.396;2023-12-14T09:16:17;96903.25;;;8.83;100.00
22580;BME280;11456;47.030;15.396;2023-12-14T09:18:44;96912.06;;;8.94;100.00
22580;BME280;11456;47.030;15.396;2023-12-14T09:21:11;96916.31;;;8.44;100.00
22580;BME280;11456;47.030;15.396;2023-12-14T09:23:37;96918.94;;;8.62;100.00
22580;BME280;11456;47.030;15.396;2023-12-14T09:26:04;96919.19;;;8.51;100.00
22580;BME280;11456;47.030;15.396;2023-12-14T09:28:31;96918.28;;;8.68;100.00
22580;BME280;11456;47.030;15.396;2023-12-14T09:30:58;96913.31;;;9.07;100.00
22580;BME280;11456;47.030;15.396;2023-12-14T09:33:25;96911.88;;;8.61;100.00
22580;BME280;11456;47.030;15.396;2023-12-14T09:35:51;96922.19;;;8.48;100.00
22580;BME280;11456;47.030;15.396;2023-12-14T09:38:18;96927.84;;;8.45;100.00
22580;BME280;11456;47.030;15.396;2023-12-14T09:40:45;96925.41;;;8.34;100.00
22580;BME280;11456;47.030;15.396;2023-12-14T09:43:12;96928.53;;;8.47;100.00
22580;BME280;11456;47.030;15.396;2023-12-14T09:45:41;96921.47;;;8.46;100.00
22580;BME280;11456;47.030;15.396;2023-12-14T09:48:11;96927.75;;;8.80;100.00
22580;BME280;11456;47.030;15.396;2023-12-14T09:50:39;96926.41;;;9.60;100.00
22580;BME280;11456;47.030;15.396;2023-12-14T09:53:07;96931.25;;;9.07;100.00
22580;BME280;11456;47.030;15.396;2023-12-14T09:55:35;96925.66;;;8.66;100.00
22580;BME280;11456;47.030;15.396;2023-12-14T09:58:02;96937.09;;;8.68;100.00
22580;BME280;11456;47.030;15.396;2023-12-14T10:00:37;96940.84;;;8.32;100.00
22580;BME280;11456;47.030;15.396;2023-12-14T10:03:25;96945.00;;;8.52;100.00
22580;BME280;11456;47.030;15.396;2023-12-14T10:05:54;96946.22;;;8.83;100.00
22580;BME280;11456;47.030;15.396;2023-12-14T10:08:22;96944.16;;;9.03;100.00
22580;BME280;11456;47.030;15.396;2023-12-14T10:10:51;96943.53;;;8.83;100.00
22580;BME280;11456;47.030;15.396;2023-12-14T10:13:21;96945.41;;;8.83;100.00
22580;BME280;11456;47.030;15.396;2023-12-14T10:15:48;96941.19;;;9.56;100.00
22580;BME280;11456;47.030;15.396;2023-12-14T10:18:22;96942.19;;;8.79;100.00
22580;BME280;11456;47.030;15.396;2023-12-14T10:20:51;96946.25;;;8.40;100.00
22580;BME280;11456;47.030;15.396;2023-12-14T10:23:18;96942.09;;;8.28;100.00
22580;BME280;11456;47.030;15.396;2023-12-14T10:25:45;96946.81;;;8.69;100.00
22580;BME280;11456;47.030;15.396;2023-12-14T10:28:16;96955.72;;;8.70;100.00
22580;BME280;11456;47.030;15.396;2023-12-14T10:30:43;96956.50;;;8.62;100.00
22580;BME280;11456;47.030;15.396;2023-12-14T10:33:10;96964.69;;;8.61;100.00
22580;BME280;11456;47.030;15.396;2023-12-14T10:35:37;96962.78;;;8.53;100.00
22580;BME280;11456;47.030;15.396;2023-12-14T10:38:05;96959.06;;;8.46;100.00
22580;BME280;11456;47.030;15.396;2023-12-14T10:40:32;96968.47;;;8.15;100.00
22580;BME280;11456;47.030;15.396;2023-12-14T10:43:00;96967.22;;;8.36;100.00
22580;BME280;11456;47.030;15.396;2023-12-14T10:45:32;96968.69;;;8.31;100.00
22580;BME280;11456;47.030;15.396;2023-12-14T10:48:00;96969.56;;;8.22;100.00
22580;BME280;11456;47.030;15.396;2023-12-14T10:50:29;96967.72;;;8.40;100.00
22580;BME280;11456;47.030;15.396;2023-12-14T10:52:59;96970.69;;;9.06;100.00
22580;BME280;11456;47.030;15.396;2023-12-14T10:57:57;96973.97;;;8.66;100.00
22580;BME280;11456;47.030;15.396;2023-12-14T11:00:24;96981.25;;;9.00;100.00
22580;BME280;11456;47.030;15.396;2023-12-14T11:02:51;96980.34;;;8.91;100.00
22580;BME280;11456;47.030;15.396;2023-12-14T11:05:22;96982.78;;;9.02;100.00
22580;BME280;11456;47.030;15.396;2023-12-14T11:08:04;96982.94;;;9.01;100.00
22580;BME280;11456;47.030;15.396;2023-12-14T11:13:07;96978.16;;;9.62;100.00
22580;BME280;11456;47.030;15.396;2023-12-14T11:15:45;96986.50;;;9.43;100.00
22580;BME280;11456;47.030;15.396;2023-12-14T11:23:17;96987.72;;;10.15;100.00
22580;BME280;11456;47.030;15.396;2023-12-14T11:25:48;96979.84;;;9.63;100.00
22580;BME280;11456;47.030;15.396;2023-12-14T11:28:23;96983.69;;;10.11;100.00
22580;BME280;11456;47.030;15.396;2023-12-14T11:30:54;96974.97;;;10.74;100.00
22580;BME280;11456;47.030;15.396;2023-12-14T11:33:22;96973.63;;;10.37;100.00
22580;BME280;11456;47.030;15.396;2023-12-14T11:35:51;96973.66;;;10.62;100.00
22580;BME280;11456;47.030;15.396;2023-12-14T11:38:19;96972.28;;;10.33;100.00
22580;BME280;11456;47.030;15.396;2023-12-14T11:40:49;96973.63;;;10.54;100.00
22580;BME280;11456;47.030;15.396;2023-12-14T11:43:16;96979.69;;;10.80;100.00
22580;BME280;11456;47.030;15.396;2023-12-14T11:45:47;96981.34;;;10.97;100.00
22580;BME280;11456;47.030;15.396;2023-12-14T11:48:13;96979.47;;;10.98;100.00
22580;BME280;11456;47.030;15.396;2023-12-14T11:50:41;96985.91;;;10.80;100.00
22580;BME280;11456;47.030;15.396;2023-12-14T11:53:10;96986.75;;;10.81;100.00
22580;BME280;11456;47.030;15.396;2023-12-14T11:55:39;96988.13;;;10.69;100.00
22580;BME280;11456;47.030;15.396;2023-12-14T11:58:07;96989.09;;;10.92;100.00
22580;BME280;11456;47.030;15.396;2023-12-14T12:00:35;96994.16;;;10.87;100.00
22580;BME280;11456;47.030;15.396;2023-12-14T12:03:17;96981.38;;;10.65;100.00
22580;BME280;11456;47.030;15.396;2023-12-14T12:05:50;96990.47;;;10.23;100.00
22580;BME280;11456;47.030;15.396;2023-12-14T12:08:19;96995.75;;;9.99;100.00
22580;BME280;11456;47.030;15.396;2023-12-14T12:10:48;96992.81;;;10.34;100.00
22580;BME280;11456;47.030;15.396;2023-12-14T12:13:16;96994.44;;;10.11;100.00
22580;BME280;11456;47.030;15.396;2023-12-14T12:15:43;96987.94;;;10.30;100.00
22580;BME280;11456;47.030;15.396;2023-12-14T12:18:13;96991.09;;;10.25;100.00
22580;BME280;11456;47.030;15.396;2023-12-14T12:20:40;96994.16;;;10.30;100.00
22580;BME280;11456;47.030;15.396;2023-12-14T12:23:07;97001.47;;;10.12;100.00
22580;BME280;11456;47.030;15.396;2023-12-14T12:25:34;97002.09;;;9.82;100.00
22580;BME280;11456;47.030;15.396;2023-12-14T12:28:02;97004.19;;;10.04;100.00
22580;BME280;11456;47.030;15.396;2023-12-14T12:30:30;97006.94;;;10.28;100.00
22580;BME280;11456;47.030;15.396;2023-12-14T12:32:57;97005.56;;;10.24;100.00
22580;BME280;11456;47.030;15.396;2023-12-14T12:35:24;97012.91;;;10.06;100.00
22580;BME280;11456;47.030;15.396;2023-12-14T12:37:56;97017.78;;;10.02;100.00
22580;BME280;11456;47.030;15.396;2023-12-14T12:40:24;97011.97;;;10.31;100.00
22580;BME280;11456;47.030;15.396;2023-12-14T12:42:53;97010.59;;;10.11;100.00
22580;BME280;11456;47.030;15.396;2023-12-14T12:45:19;97021.41;;;10.52;100.00
22580;BME280;11456;47.030;15.396;2023-12-14T12:47:49;97013.34;;;10.35;100.00
22580;BME280;11456;47.030;15.396;2023-12-14T12:50:17;97024.69;;;10.13;100.00
22580;BME280;11456;47.030;15.396;2023-12-14T12:52:44;97017.34;;;10.31;100.00
22580;BME280;11456;47.030;15.396;2023-12-14T12:55:15;97023.44;;;10.66;100.00
22580;BME280;11456;47.030;15.396;2023-12-14T12:57:42;97029.53;;;10.68;100.00
22580;BME280;11456;47.030;15.396;2023-12-14T13:00:09;97038.25;;;10.94;100.00